Time;durP1;ratioP1;P1;durP2;ratioP2;P2;SDS_P1;SDS_P2;PMS_P1;PMS_P2;Temp;Humidity;BMP_temperature;BMP_pressure;BME280_temperature;BME280_humidity;BME280_pressure;Samples;Min_cycle;Max_cycle;Signal;HPM_P1;HPM_P2
2023/05/10 00:58:56;;;;;;;20.20;10.80;;;13.70;99.90;;;;;;6344544;22;20236;-92
2023/05/10 01:02:09;;;;;;;20.80;9.98;;;13.70;99.90;;;;;;6352254;22;20029;-92
2023/05/10 01:05:42;;;;;;;18.98;10.10;;;13.60;99.90;;;;;;6343049;22;20051;-90
2023/05/10 01:09:11;;;;;;;19.38;8.57;;;13.70;99.90;;;;;;6253333;22;20016;-90
2023/05/10 01:12:18;;;;;;;23.65;12.82;;;13.70;99.90;;;;;;6276499;22;20103;-91
2023/05/10 01:15:11;;;;;;;28.33;13.40;;;13.70;99.90;;;;;;6250574;22;20016;-91
2023/05/10 01:18:37;;;;;;;23.42;11.57;;;13.70;99.90;;;;;;6130423;23;20024;-91
2023/05/10 01:29:20;;;;;;;22.98;10.65;;;13.70;99.90;;;;;;5954559;24;20092;-91
2023/05/10 01:32:08;;;;;;;22.02;11.07;;;13.70;99.80;;;;;;5929525;23;20031;-89
2023/05/10 01:35:19;;;;;;;22.13;10.90;;;13.80;99.80;;;;;;6024484;23;20017;-91
2023/05/10 01:38:33;;;;;;;24.15;12.00;;;13.80;99.80;;;;;;6116673;23;20021;-90
2023/05/10 01:41:24;;;;;;;22.45;10.93;;;13.80;99.80;;;;;;6221575;23;20095;-91
2023/05/10 01:44:31;;;;;;;24.23;12.70;;;13.80;99.80;;;;;;6215076;23;20552;-90
2023/05/10 01:47:55;;;;;;;24.08;11.90;;;13.80;99.80;;;;;;6224896;23;20016;-90
2023/05/10 01:50:29;;;;;;;24.45;12.43;;;13.80;99.80;;;;;;6220473;23;20020;-90
2023/05/10 01:53:07;;;;;;;24.45;12.80;;;13.80;99.80;;;;;;6171138;23;20020;-89
2023/05/10 01:55:41;;;;;;;28.65;13.45;;;13.80;99.80;;;;;;6219731;23;20027;-90
2023/05/10 01:58:35;;;;;;;21.45;11.30;;;13.80;99.90;;;;;;6196596;23;20091;-89
2023/05/10 02:01:09;;;;;;;23.63;11.45;;;13.80;99.90;;;;;;6195708;23;20059;-90
2023/05/10 02:03:42;;;;;;;24.88;12.07;;;13.80;99.90;;;;;;6220046;23;20088;-89
2023/05/10 02:06:23;;;;;;;21.20;10.70;;;13.80;99.90;;;;;;6221622;23;20454;-90
2023/05/10 02:08:57;;;;;;;28.73;14.20;;;13.80;99.90;;;;;;6219564;23;20095;-90
2023/05/10 02:11:32;;;;;;;28.10;14.60;;;13.80;99.90;;;;;;6219692;23;20020;-90
2023/05/10 02:14:11;;;;;;;29.77;15.13;;;13.80;99.90;;;;;;6195737;23;20020;-88
2023/05/10 02:16:50;;;;;;;25.88;13.13;;;13.80;99.90;;;;;;6171233;23;20102;-90
2023/05/10 02:19:42;;;;;;;26.08;12.30;;;13.80;99.90;;;;;;6219312;23;20040;-91
2023/05/10 02:25:47;;;;;;;27.65;14.52;;;13.80;99.90;;;;;;6203324;23;20020;-91
2023/05/10 02:28:55;;;;;;;28.17;13.13;;;13.80;99.90;;;;;;6219355;23;20140;-91
2023/05/10 02:31:56;;;;;;;29.25;13.93;;;13.80;99.90;;;;;;6189352;23;20024;-91
2023/05/10 02:34:52;;;;;;;;;;;;;;;;;;;;;
2023/05/10 02:38:15;;;;;;;35.95;17.80;;;13.70;99.90;;;;;;6189540;23;20020;-91
2023/05/10 02:42:03;;;;;;;;;;;;;;;;;;;;;
2023/05/10 02:48:52;;;;;;;36.25;17.13;;;13.70;99.90;;;;;;6232888;23;20431;-90
2023/05/10 02:52:00;;;;;;;39.88;19.42;;;13.70;99.90;;;;;;6219102;23;20107;-90
2023/05/10 02:55:10;;;;;;;39.35;18.15;;;13.70;99.90;;;;;;6223870;23;20098;-91
2023/05/10 02:57:58;;;;;;;39.80;19.02;;;13.70;99.90;;;;;;6195002;23;20027;-91
2023/05/10 03:00:37;;;;;;;34.50;16.13;;;13.70;99.90;;;;;;6174158;23;20046;-91
2023/05/10 03:03:39;;;;;;;37.78;17.33;;;13.70;99.90;;;;;;6222578;23;20533;-91
2023/05/10 03:06:16;;;;;;;;;;;13.70;99.90;;;;;;6174349;23;20020;-90
2023/05/10 03:09:10;;;;;;;31.92;14.70;;;13.60;99.90;;;;;;6195476;23;19950;-91
2023/05/10 03:12:00;;;;;;;37.33;18.20;;;13.60;99.90;;;;;;6196193;23;20030;-90
2023/05/10 03:14:59;;;;;;;39.80;19.15;;;13.70;99.90;;;;;;6172525;23;20024;-89
2023/05/10 03:18:01;;;;;;;36.38;16.58;;;13.60;99.90;;;;;;6224113;23;20068;-90
2023/05/10 03:20:59;;;;;;;;;;;;;;;;;;;;;
2023/05/10 03:23:50;;;;;;;35.10;15.73;;;13.60;99.90;;;;;;6218929;23;20016;-90
2023/05/10 03:26:43;;;;;;;;;;;;;;;;;;;;;
2023/05/10 03:29:46;;;;;;;39.63;18.00;;;13.60;99.90;;;;;;6208269;23;20431;-90
2023/05/10 03:32:47;;;;;;;32.10;14.95;;;13.60;99.90;;;;;;6200616;23;20103;-91
2023/05/10 03:35:33;;;;;;;27.77;13.35;;;13.60;99.90;;;;;;6174653;23;20019;-90
2023/05/10 03:42:50;;;;;;;;;;;;;;;;;;;;;
2023/05/10 03:46:57;;;;;;;;;;;;;;;;;;;;;
2023/05/10 03:53:59;;;;;;;36.78;18.05;;;13.50;99.90;;;;;;6085580;23;20097;-92
2023/05/10 03:56:47;;;;;;;33.23;17.17;;;13.50;99.90;;;;;;6081913;23;20040;-91
2023/05/10 04:00:00;;;;;;;39.65;19.17;;;13.50;99.90;;;;;;6093871;23;20157;-91
2023/05/10 04:02:56;;;;;;;35.63;17.17;;;13.50;99.90;;;;;;6108162;23;20182;-91
2023/05/10 04:06:08;;;;;;;39.42;18.63;;;13.50;99.90;;;;;;6060538;23;20068;-91
2023/05/10 04:09:04;;;;;;;40.63;18.95;;;13.40;99.90;;;;;;6107276;23;20026;-92
2023/05/10 04:11:55;;;;;;;31.98;16.77;;;13.40;99.90;;;;;;6177726;23;20103;-91
2023/05/10 04:14:37;;;;;;;31.90;16.33;;;13.40;99.90;;;;;;6173495;23;20024;-90
2023/05/10 04:17:31;;;;;;;37.00;17.42;;;13.40;99.90;;;;;;6197936;23;20046;-90
2023/05/10 04:20:32;;;;;;;41.70;20.58;;;13.40;99.90;;;;;;6196516;23;20016;-91
2023/05/10 04:23:19;;;;;;;40.42;19.63;;;13.40;99.90;;;;;;6199629;23;20027;-90
2023/05/10 04:26:03;;;;;;;36.67;17.20;;;13.40;99.90;;;;;;6195593;23;20020;-90
2023/05/10 04:28:31;;;;;;;37.30;17.67;;;13.40;99.90;;;;;;6220529;23;20020;-89
2023/05/10 04:31:11;;;;;;;32.45;16.02;;;13.40;99.90;;;;;;6223071;23;20087;-89
2023/05/10 04:33:43;;;;;;;35.58;17.67;;;13.40;99.90;;;;;;6220104;23;20471;-90
2023/05/10 04:36:44;;;;;;;36.92;18.85;;;13.40;99.90;;;;;;6222840;23;20024;-90
2023/05/10 04:39:15;;;;;;;39.50;19.48;;;13.40;99.90;;;;;;6196583;23;20020;-91
2023/05/10 04:41:43;;;;;;;40.58;19.20;;;13.30;99.90;;;;;;6220633;23;20054;-90
2023/05/10 04:44:12;;;;;;;41.00;20.52;;;13.30;99.90;;;;;;6196213;23;20027;-89
2023/05/10 04:46:45;;;;;;;48.42;20.98;;;13.30;99.90;;;;;;6195846;23;20095;-90
2023/05/10 04:49:17;;;;;;;39.30;18.80;;;13.30;99.90;;;;;;6196924;23;20141;-90
2023/05/10 04:51:59;;;;;;;36.40;18.35;;;13.30;99.90;;;;;;6220416;23;20020;-90
2023/05/10 04:54:26;;;;;;;35.17;17.90;;;13.30;99.90;;;;;;6220593;23;20035;-90
2023/05/10 04:56:59;;;;;;;34.08;17.02;;;13.30;99.90;;;;;;6196459;23;20020;-90
2023/05/10 04:59:29;;;;;;;33.28;17.75;;;13.30;99.90;;;;;;6220624;23;20026;-90
2023/05/10 05:01:56;;;;;;;38.28;16.70;;;13.30;99.90;;;;;;6220379;23;20019;-90
2023/05/10 05:04:26;;;;;;;29.30;14.68;;;13.30;99.90;;;;;;6220682;23;20016;-90
2023/05/10 05:07:00;;;;;;;37.75;17.38;;;13.40;99.90;;;;;;6196759;23;20760;-90
2023/05/10 05:09:31;;;;;;;33.80;15.98;;;13.40;99.90;;;;;;6195932;23;20036;-90
2023/05/10 05:12:01;;;;;;;29.98;15.20;;;13.40;99.90;;;;;;6172171;23;20020;-90
2023/05/10 05:14:30;;;;;;;27.85;14.07;;;13.40;99.90;;;;;;6195948;23;20038;-90
2023/05/10 05:17:05;;;;;;;31.17;15.63;;;13.40;99.90;;;;;;6196205;23;20016;-90
2023/05/10 05:19:32;;;;;;;32.58;15.10;;;13.50;99.90;;;;;;6220124;23;20338;-89
2023/05/10 05:22:02;;;;;;;31.50;14.75;;;13.50;99.80;;;;;;6261314;22;20500;-90
2023/05/10 05:24:39;;;;;;;31.67;15.77;;;13.50;99.80;;;;;;6318882;22;20022;-90
2023/05/10 05:27:10;;;;;;;28.35;14.43;;;13.50;99.80;;;;;;6318639;22;20067;-90
2023/05/10 05:29:53;;;;;;;25.95;12.40;;;13.50;99.80;;;;;;6344173;22;20019;-90
2023/05/10 05:32:24;;;;;;;24.92;12.25;;;13.50;99.80;;;;;;6344461;22;20014;-89
2023/05/10 05:34:52;;;;;;;26.70;13.93;;;13.60;99.80;;;;;;6318767;22;20029;-89
2023/05/10 05:37:21;;;;;;;28.52;12.80;;;13.60;99.80;;;;;;6318408;22;20048;-89
2023/05/10 05:39:54;;;;;;;32.13;15.38;;;13.70;99.80;;;;;;6344153;22;20018;-89
2023/05/10 05:42:25;;;;;;;31.03;14.17;;;13.70;99.70;;;;;;6344251;22;20019;-89
2023/05/10 05:44:52;;;;;;;30.35;16.38;;;13.70;99.70;;;;;;6317149;22;20375;-90
2023/05/10 05:47:23;;;;;;;28.48;14.75;;;13.80;99.60;;;;;;6318778;22;20093;-90
2023/05/10 05:50:00;;;;;;;30.52;15.85;;;13.80;99.50;;;;;;6293503;22;20022;-89
2023/05/10 05:52:30;;;;;;;36.17;17.77;;;13.80;99.50;;;;;;6318663;22;20014;-90
2023/05/10 05:55:03;;;;;;;36.05;17.88;;;13.90;99.50;;;;;;6318511;22;20019;-89
2023/05/10 05:57:33;;;;;;;38.90;19.77;;;13.90;99.50;;;;;;6318961;22;20089;-89
2023/05/10 06:00:06;;;;;;;37.08;17.30;;;13.90;99.40;;;;;;6319247;22;20019;-90
2023/05/10 06:03:35;;;;;;;32.88;15.80;;;14.00;99.30;;;;;;6345708;22;20046;-89
2023/05/10 06:06:25;;;;;;;27.35;13.40;;;14.10;99.30;;;;;;6322197;22;20088;-89
2023/05/10 06:08:54;;;;;;;27.48;12.38;;;14.10;99.30;;;;;;6343763;22;20026;-89
2023/05/10 06:11:22;;;;;;;32.03;13.73;;;14.10;99.30;;;;;;6343858;22;20026;-88
2023/05/10 06:13:50;;;;;;;28.60;13.25;;;14.10;99.20;;;;;;6317501;22;20025;-89
2023/05/10 06:16:17;;;;;;;38.10;16.23;;;14.10;99.30;;;;;;6317857;22;20041;-88
2023/05/10 06:18:47;;;;;;;34.65;16.35;;;14.10;99.20;;;;;;6317956;22;20015;-89
2023/05/10 06:21:17;;;;;;;35.88;17.60;;;14.10;99.30;;;;;;6317839;22;20046;-89
2023/05/10 06:23:44;;;;;;;35.63;15.90;;;14.00;99.30;;;;;;6292739;22;20447;-89
2023/05/10 06:26:17;;;;;;;36.05;16.17;;;14.00;99.30;;;;;;6318525;22;20053;-89
2023/05/10 06:28:48;;;;;;;33.75;14.55;;;14.00;99.40;;;;;;6318222;22;20046;-89
2023/05/10 06:31:16;;;;;;;39.63;18.08;;;13.90;99.30;;;;;;6317988;22;20022;-89
2023/05/10 06:33:47;;;;;;;41.83;18.30;;;13.90;99.30;;;;;;6317528;22;20018;-88
2023/05/10 06:36:15;;;;;;;34.50;16.70;;;13.90;99.40;;;;;;6343804;22;20052;-89
2023/05/10 06:38:46;;;;;;;37.00;17.33;;;13.90;99.40;;;;;;6317608;22;20014;-89
2023/05/10 06:41:13;;;;;;;36.80;17.17;;;13.80;99.40;;;;;;6317805;22;20010;-89
2023/05/10 06:43:43;;;;;;;34.80;17.15;;;13.80;99.40;;;;;;6318245;22;20038;-89
2023/05/10 06:46:13;;;;;;;36.45;16.13;;;13.80;99.40;;;;;;6318581;22;20018;-88
2023/05/10 06:48:41;;;;;;;34.53;15.30;;;13.80;99.40;;;;;;6292171;22;20014;-90
2023/05/10 06:51:08;;;;;;;36.10;16.42;;;13.90;99.40;;;;;;6317608;22;20022;-90
2023/05/10 06:53:38;;;;;;;31.50;15.82;;;13.80;99.40;;;;;;6318276;22;20014;-88
2023/05/10 06:56:07;;;;;;;28.98;14.45;;;13.90;99.40;;;;;;6317636;22;20082;-88
2023/05/10 06:58:40;;;;;;;32.42;14.77;;;13.90;99.40;;;;;;6318167;22;20034;-88
2023/05/10 07:01:10;;;;;;;35.45;16.50;;;13.90;99.40;;;;;;6343347;22;20077;-88
2023/05/10 07:03:38;;;;;;;30.45;15.07;;;13.90;99.40;;;;;;6317363;22;20015;-90
2023/05/10 07:06:07;;;;;;;30.50;15.07;;;13.90;99.40;;;;;;6317426;22;20018;-88
2023/05/10 07:08:42;;;;;;;30.48;14.57;;;13.90;99.40;;;;;;6318721;22;20022;-88
2023/05/10 07:11:10;;;;;;;34.17;15.57;;;14.00;99.30;;;;;;6317883;22;20019;-90
2023/05/10 07:13:43;;;;;;;34.25;15.73;;;14.00;99.30;;;;;;6317746;22;20018;-90
2023/05/10 07:16:12;;;;;;;37.97;17.75;;;14.00;99.30;;;;;;6317715;22;20022;-88
2023/05/10 07:18:42;;;;;;;34.42;16.73;;;14.10;99.30;;;;;;6316980;22;20060;-88
2023/05/10 07:21:09;;;;;;;36.20;16.65;;;14.00;99.20;;;;;;6292235;22;20038;-89
2023/05/10 07:23:36;;;;;;;35.30;17.15;;;14.00;99.20;;;;;;6317740;22;20021;-88
2023/05/10 07:26:06;;;;;;;33.17;16.77;;;14.10;99.20;;;;;;6317533;22;20018;-88
2023/05/10 07:28:37;;;;;;;34.92;16.50;;;14.20;99.20;;;;;;6293350;22;20130;-88
2023/05/10 07:31:13;;;;;;;34.75;16.35;;;14.20;99.10;;;;;;6318459;22;20519;-88
2023/05/10 07:33:40;;;;;;;28.42;14.30;;;14.20;99.10;;;;;;6317412;22;20386;-88
2023/05/10 07:36:08;;;;;;;33.10;15.50;;;14.20;99.10;;;;;;6291452;22;20101;-88
2023/05/10 07:38:35;;;;;;;31.95;16.30;;;14.30;99.10;;;;;;6317566;22;20249;-88
2023/05/10 07:41:06;;;;;;;36.63;18.27;;;14.30;99.10;;;;;;6320252;22;20022;-88
2023/05/10 07:43:44;;;;;;;35.30;16.05;;;14.40;99.10;;;;;;6319236;22;20018;-88
2023/05/10 07:46:11;;;;;;;33.45;15.35;;;14.50;98.90;;;;;;6319446;22;20014;-88
2023/05/10 07:48:38;;;;;;;37.88;18.38;;;14.50;98.90;;;;;;6344763;22;20025;-87
2023/05/10 07:51:09;;;;;;;37.75;17.70;;;14.60;98.70;;;;;;6319062;22;20022;-88
2023/05/10 07:53:36;;;;;;;41.42;21.40;;;14.70;98.70;;;;;;6319207;22;20018;-87
2023/05/10 07:56:25;;;;;;;39.85;19.13;;;14.70;98.60;;;;;;6319774;22;20027;-88
2023/05/10 07:58:52;;;;;;;36.88;18.05;;;14.70;98.60;;;;;;6319228;22;20340;-87
2023/05/10 08:01:19;;;;;;;35.28;16.83;;;14.70;98.60;;;;;;6319613;22;20020;-88
2023/05/10 08:03:47;;;;;;;37.42;17.27;;;14.70;98.60;;;;;;6318872;22;20018;-88
2023/05/10 08:06:20;;;;;;;35.80;16.45;;;14.70;98.60;;;;;;6344913;22;20100;-87
2023/05/10 08:08:50;;;;;;;37.78;17.65;;;14.80;98.50;;;;;;6294700;22;20042;-88
2023/05/10 08:11:18;;;;;;;32.95;15.77;;;14.80;98.40;;;;;;6345227;22;20076;-87
2023/05/10 08:13:46;;;;;;;31.67;15.02;;;14.90;98.50;;;;;;6318792;22;20029;-87
2023/05/10 08:16:22;;;;;;;29.80;14.23;;;15.10;98.30;;;;;;6323572;22;20105;-87
2023/05/10 08:18:50;;;;;;;34.85;15.93;;;15.30;98.10;;;;;;6319338;22;20463;-87
2023/05/10 08:21:18;;;;;;;35.55;16.00;;;15.30;98.00;;;;;;6345583;22;20085;-87
2023/05/10 08:23:45;;;;;;;30.55;15.02;;;15.30;97.90;;;;;;6344972;22;20018;-84
2023/05/10 08:26:12;;;;;;;36.20;17.20;;;15.30;97.90;;;;;;6293529;22;20462;-86
2023/05/10 08:28:41;;;;;;;32.97;15.27;;;15.40;97.90;;;;;;6319684;22;20454;-86
2023/05/10 08:31:08;;;;;;;41.38;19.80;;;15.50;97.80;;;;;;6293233;22;20029;-85
2023/05/10 08:33:38;;;;;;;42.63;20.70;;;15.50;97.40;;;;;;6292945;22;20079;-86
2023/05/10 08:36:10;;;;;;;;;;;15.30;97.30;;;;;;6319735;22;20018;-86
2023/05/10 08:38:42;;;;;;;34.25;18.35;;;15.10;97.50;;;;;;6319521;22;19914;-86
2023/05/10 08:41:10;;;;;;;37.35;17.52;;;15.00;97.60;;;;;;6319068;22;20097;-86
2023/05/10 08:43:45;;;;;;;30.30;15.20;;;14.90;97.60;;;;;;6292979;22;20042;-86
2023/05/10 08:46:19;;;;;;;34.60;15.82;;;14.90;97.70;;;;;;6318550;22;20018;-86
2023/05/10 08:48:50;;;;;;;26.90;13.30;;;14.90;97.70;;;;;;6344437;22;20128;-86
2023/05/10 08:51:26;;;;;;;27.67;13.55;;;14.80;97.70;;;;;;6318548;22;20075;-85
2023/05/10 08:53:54;;;;;;;25.75;13.43;;;14.80;97.80;;;;;;6344382;22;20376;-85
2023/05/10 08:56:26;;;;;;;23.95;12.55;;;14.80;97.90;;;;;;6318512;22;20067;-86
2023/05/10 08:58:57;;;;;;;21.48;10.95;;;14.90;97.80;;;;;;6318309;22;20045;-85
2023/05/10 09:01:26;;;;;;;20.50;11.10;;;15.00;97.70;;;;;;6318591;22;20038;-85
2023/05/10 09:03:54;;;;;;;18.63;9.88;;;15.20;97.40;;;;;;6343576;22;20101;-84
2023/05/10 09:06:23;;;;;;;18.67;11.30;;;15.30;97.30;;;;;;6268667;22;20071;-84
2023/05/10 09:08:51;;;;;;;19.20;11.32;;;15.40;97.00;;;;;;6343772;22;20501;-85
2023/05/10 09:11:20;;;;;;;18.50;10.00;;;15.40;96.90;;;;;;6317979;22;20033;-85
2023/05/10 09:13:52;;;;;;;19.25;9.93;;;15.50;96.80;;;;;;6317879;22;20023;-85
2023/05/10 09:16:19;;;;;;;18.55;9.30;;;15.50;96.90;;;;;;6318109;22;20033;-85
2023/05/10 09:18:49;;;;;;;17.80;8.05;;;15.60;96.70;;;;;;6344133;22;20018;-84
2023/05/10 09:21:16;;;;;;;14.48;7.88;;;15.80;96.60;;;;;;6318370;22;20059;-86
2023/05/10 09:23:45;;;;;;;13.50;7.63;;;15.90;96.30;;;;;;6318140;22;20101;-85
2023/05/10 09:26:14;;;;;;;17.58;9.15;;;16.00;96.20;;;;;;6292814;22;20365;-84
2023/05/10 09:28:51;;;;;;;13.95;8.38;;;16.00;95.70;;;;;;6317729;22;20090;-84
2023/05/10 09:31:18;;;;;;;11.45;6.57;;;16.10;95.60;;;;;;6343423;22;20028;-84
2023/05/10 09:33:47;;;;;;;10.95;6.28;;;16.10;95.50;;;;;;6317855;22;20121;-85
2023/05/10 09:36:15;;;;;;;9.10;5.30;;;16.00;95.20;;;;;;6292053;22;20014;-85
2023/05/10 09:38:51;;;;;;;10.63;6.05;;;16.00;95.10;;;;;;6318108;22;20017;-84
2023/05/10 09:41:20;;;;;;;11.57;4.97;;;16.00;95.20;;;;;;6343388;22;20026;-84
2023/05/10 09:43:48;;;;;;;8.82;4.43;;;16.00;95.30;;;;;;6317681;22;20019;-84
2023/05/10 09:46:16;;;;;;;8.63;4.82;;;16.00;95.30;;;;;;6291748;22;20440;-84
2023/05/10 09:48:45;;;;;;;9.48;4.43;;;16.10;95.10;;;;;;6267058;22;20026;-85
2023/05/10 09:51:22;;;;;;;8.57;4.53;;;16.10;95.10;;;;;;6317622;22;20097;-85
2023/05/10 09:54:10;;;;;;;10.02;6.03;;;16.10;94.90;;;;;;6343787;22;20022;-90
2023/05/10 09:56:40;;;;;;;11.40;5.65;;;16.00;94.70;;;;;;6317482;22;20337;-84
2023/05/10 09:59:10;;;;;;;8.10;4.50;;;15.90;94.80;;;;;;6343155;22;20019;-85
2023/05/10 10:01:38;;;;;;;11.07;5.90;;;16.00;94.60;;;;;;6343289;22;20025;-86
2023/05/10 10:04:07;;;;;;;13.20;6.45;;;15.90;94.20;;;;;;6343508;22;20052;-87
2023/05/10 10:06:38;;;;;;;9.63;5.78;;;15.80;93.90;;;;;;6317612;22;20038;-88
2023/05/10 10:09:09;;;;;;;8.73;4.40;;;15.90;93.70;;;;;;6317563;22;20025;-86
2023/05/10 10:11:37;;;;;;;10.15;5.60;;;15.80;93.90;;;;;;6343740;22;20026;-87
2023/05/10 10:14:05;;;;;;;9.25;5.55;;;15.80;93.60;;;;;;6343430;22;20379;-88
2023/05/10 10:16:32;;;;;;;8.73;5.20;;;15.70;93.80;;;;;;6317449;22;20022;-86
2023/05/10 10:19:00;;;;;;;9.88;5.55;;;15.70;93.80;;;;;;6267035;22;20026;-86
2023/05/10 10:21:30;;;;;;;10.80;5.57;;;15.70;93.70;;;;;;6292488;22;20444;-84
2023/05/10 10:23:57;;;;;;;9.38;5.18;;;15.70;94.00;;;;;;6291909;22;20018;-87
2023/05/10 10:26:25;;;;;;;8.95;4.53;;;15.70;93.60;;;;;;6317778;22;20014;-85
2023/05/10 10:29:30;;;;;;;9.55;5.47;;;15.70;93.60;;;;;;6294460;22;20018;-87
2023/05/10 10:32:18;;;;;;;7.40;3.92;;;15.70;93.80;;;;;;6317535;22;20023;-86
2023/05/10 10:34:46;;;;;;;6.43;3.30;;;15.80;93.80;;;;;;6343040;22;20325;-85
2023/05/10 10:37:13;;;;;;;7.65;3.58;;;15.90;93.80;;;;;;6291694;22;20082;-87
2023/05/10 10:39:40;;;;;;;7.60;4.57;;;15.90;93.70;;;;;;6266178;22;20444;-84
2023/05/10 10:42:07;;;;;;;10.82;4.70;;;16.00;93.70;;;;;;6291298;22;20102;-87
2023/05/10 10:44:37;;;;;;;7.45;3.88;;;16.00;93.80;;;;;;6266402;22;20404;-87
2023/05/10 10:47:33;;;;;;;8.43;4.05;;;16.20;93.80;;;;;;6343003;22;20033;-88
2023/05/10 10:49:58;;;;;;;9.60;5.15;;;16.60;93.50;;;;;;6342474;22;20022;-86
2023/05/10 10:52:28;;;;;;;7.53;4.80;;;16.60;93.30;;;;;;6317680;22;20014;-88
2023/05/10 10:54:59;;;;;;;8.43;4.68;;;16.70;93.10;;;;;;6342932;22;20408;-88
2023/05/10 10:57:47;;;;;;;11.57;5.43;;;16.90;93.00;;;;;;6318603;22;20022;-86
2023/05/10 11:00:28;;;;;;;9.32;4.80;;;16.90;92.80;;;;;;6343131;22;20015;-86
2023/05/10 11:03:08;;;;;;;8.25;4.10;;;16.90;92.80;;;;;;6342913;22;20023;-86
2023/05/10 11:05:37;;;;;;;6.40;3.42;;;16.90;93.00;;;;;;6292256;22;20021;-87
2023/05/10 11:08:31;;;;;;;8.88;4.80;;;16.90;93.10;;;;;;6316715;22;20014;-86
2023/05/10 11:11:03;;;;;;;8.85;4.47;;;16.90;92.80;;;;;;6330303;22;20382;-85
2023/05/10 11:13:34;;;;;;;7.82;4.13;;;16.70;92.90;;;;;;6342840;22;20014;-86
2023/05/10 11:16:19;;;;;;;8.48;4.20;;;16.70;92.90;;;;;;6343003;22;20021;-86
2023/05/10 11:19:07;;;;;;;8.10;4.35;;;16.70;92.90;;;;;;6342785;22;20026;-88
2023/05/10 11:21:51;;;;;;;8.27;4.30;;;16.70;92.80;;;;;;6317367;22;20010;-87
2023/05/10 11:24:21;;;;;;;8.63;3.67;;;16.80;92.70;;;;;;6319343;22;20041;-87
2023/05/10 11:26:56;;;;;;;8.30;4.40;;;16.90;92.70;;;;;;6343792;22;20026;-88
2023/05/10 11:29:35;;;;;;;8.75;5.45;;;17.00;92.40;;;;;;6317652;22;20056;-92
2023/05/10 11:32:22;;;;;;;8.18;4.30;;;17.20;92.00;;;;;;6317501;22;20018;-91
2023/05/10 11:34:49;;;;;;;9.30;4.38;;;17.40;92.00;;;;;;6315631;22;20022;-82
2023/05/10 11:37:18;;;;;;;6.82;3.92;;;17.50;91.80;;;;;;6264985;22;20105;-85
2023/05/10 11:39:47;;;;;;;7.00;3.40;;;17.70;91.70;;;;;;6316431;22;20088;-87
2023/05/10 11:42:17;;;;;;;;;;;18.00;91.60;;;;;;6317685;22;20018;-83
2023/05/10 11:44:47;;;;;;;6.50;2.67;;;18.10;91.40;;;;;;6342968;22;19925;-82
2023/05/10 11:47:14;;;;;;;5.78;3.38;;;18.30;91.30;;;;;;6316241;22;20041;-84
2023/05/10 11:49:44;;;;;;;6.53;3.85;;;18.20;91.00;;;;;;6290244;22;20022;-86
2023/05/10 11:52:11;;;;;;;6.35;3.80;;;18.10;91.00;;;;;;6342634;22;20028;-86
2023/05/10 11:55:12;;;;;;;5.75;3.35;;;18.10;90.90;;;;;;6291779;22;20388;-86
2023/05/10 11:57:44;;;;;;;6.80;4.10;;;18.20;90.80;;;;;;6317694;22;20022;-85
2023/05/10 12:00:13;;;;;;;7.70;4.07;;;18.10;90.40;;;;;;6316703;22;20756;-86
2023/05/10 12:02:42;;;;;;;7.13;3.72;;;18.00;90.30;;;;;;6342832;22;20018;-85
2023/05/10 12:05:10;;;;;;;5.95;3.35;;;18.00;90.40;;;;;;6290994;22;20014;-87
2023/05/10 12:07:40;;;;;;;5.85;3.47;;;18.10;90.60;;;;;;6317256;22;20019;-84
2023/05/10 12:10:14;;;;;;;6.47;3.55;;;18.10;90.70;;;;;;6316150;22;20509;-85
2023/05/10 12:12:49;;;;;;;5.82;2.78;;;18.30;90.70;;;;;;6317189;22;20075;-88
2023/05/10 12:19:54;;;;;;;6.45;3.35;;;18.50;90.60;;;;;;6370642;22;20085;-89
2023/05/10 12:22:24;;;;;;;5.50;2.78;;;18.50;90.60;;;;;;6293874;22;20096;-89
2023/05/10 12:24:54;;;;;;;5.38;3.13;;;18.60;90.40;;;;;;6316905;22;20470;-85
2023/05/10 12:27:32;;;;;;;6.18;2.75;;;18.70;90.40;;;;;;6294805;22;20440;-85
2023/05/10 12:29:59;;;;;;;5.50;2.78;;;18.90;90.30;;;;;;6317987;22;20105;-83
2023/05/10 12:32:43;;;;;;;5.57;3.10;;;19.00;90.30;;;;;;6318722;22;20018;-84
2023/05/10 12:35:11;;;;;;;5.05;3.20;;;19.10;90.00;;;;;;6343874;22;20026;-84
2023/05/10 12:37:41;;;;;;;5.55;3.30;;;19.10;90.10;;;;;;6318181;22;20075;-85
2023/05/10 12:40:10;;;;;;;4.78;2.88;;;19.00;89.80;;;;;;6292940;22;20014;-85
2023/05/10 12:42:43;;;;;;;5.32;3.38;;;18.90;89.90;;;;;;6343793;22;20050;-85
2023/05/10 12:45:11;;;;;;;4.78;2.55;;;18.80;90.10;;;;;;6318032;22;20018;-84
2023/05/10 12:47:38;;;;;;;4.20;2.40;;;18.80;90.00;;;;;;6317634;22;20041;-83
2023/05/10 12:50:09;;;;;;;5.88;2.22;;;18.80;90.00;;;;;;6293437;22;20022;-85
2023/05/10 12:52:38;;;;;;;4.10;2.15;;;18.80;89.90;;;;;;6343917;22;20018;-87
2023/05/10 12:55:07;;;;;;;4.32;2.50;;;18.90;89.60;;;;;;6317903;22;20025;-84
2023/05/10 12:57:34;;;;;;;5.57;2.90;;;19.00;88.40;;;;;;6343976;22;20089;-85
2023/05/10 13:00:02;;;;;;;4.78;2.85;;;18.90;87.60;;;;;;6318109;22;20044;-86
2023/05/10 13:02:31;;;;;;;4.68;2.33;;;18.90;87.40;;;;;;6318864;22;20093;-85
2023/05/10 13:04:58;;;;;;;4.22;1.98;;;18.90;87.20;;;;;;6292132;22;20447;-85
2023/05/10 13:07:26;;;;;;;5.20;2.15;;;19.00;86.90;;;;;;6317867;22;20044;-85
2023/05/10 13:09:57;;;;;;;4.20;1.63;;;19.10;87.10;;;;;;6344819;22;20019;-88
2023/05/10 13:13:09;;;;;;;3.83;1.75;;;19.30;87.20;;;;;;6200560;23;20427;-88
2023/05/10 13:15:57;;;;;;;5.18;2.60;;;19.40;86.30;;;;;;6190052;23;20454;-90
2023/05/10 13:19:09;;;;;;;;;;;19.50;85.60;;;;;;6166596;23;20020;-89
2023/05/10 13:26:29;;;;;;;3.10;1.80;;;19.80;85.00;;;;;;6216786;22;20031;-91
2023/05/10 13:29:08;;;;;;;4.78;1.98;;;19.60;84.90;;;;;;6161682;23;20020;-91
2023/05/10 13:31:37;;;;;;;3.90;1.77;;;19.40;85.10;;;;;;6301456;22;20019;-83
2023/05/10 13:34:05;;;;;;;4.43;2.47;;;19.20;85.40;;;;;;6261019;22;20014;-84
2023/05/10 13:36:32;;;;;;;4.82;2.53;;;19.00;86.20;;;;;;6286130;22;20015;-86
2023/05/10 13:39:01;;;;;;;4.40;2.33;;;18.80;85.60;;;;;;6286491;22;20336;-84
2023/05/10 13:41:28;;;;;;;4.40;2.50;;;18.60;86.20;;;;;;6285534;22;20065;-84
2023/05/10 13:44:12;;;;;;;4.80;2.30;;;18.50;86.60;;;;;;6286298;22;20437;-88
2023/05/10 13:46:42;;;;;;;4.10;2.13;;;18.50;86.70;;;;;;6286406;22;20014;-85
2023/05/10 13:49:11;;;;;;;4.43;2.40;;;18.50;86.80;;;;;;6287414;22;20019;-84
2023/05/10 13:51:38;;;;;;;5.85;2.70;;;18.50;85.90;;;;;;6287388;22;20015;-88
2023/05/10 13:54:06;;;;;;;4.53;2.75;;;18.40;85.60;;;;;;6286214;22;20049;-87
2023/05/10 13:56:33;;;;;;;7.65;4.57;;;18.20;85.90;;;;;;6286309;22;20471;-84
2023/05/10 13:59:00;;;;;;;10.10;4.53;;;18.00;86.10;;;;;;6286291;22;20061;-89
2023/05/10 14:01:33;;;;;;;6.80;4.72;;;17.70;86.60;;;;;;6312785;22;20084;-90
2023/05/10 14:04:00;;;;;;;7.10;5.35;;;17.50;87.10;;;;;;6286668;22;20041;-85
2023/05/10 14:06:28;;;;;;;8.50;5.53;;;17.30;87.80;;;;;;6236377;22;20101;-83
2023/05/10 14:08:55;;;;;;;7.72;5.90;;;17.10;88.20;;;;;;6259929;22;20019;-85
2023/05/10 14:11:24;;;;;;;8.70;6.63;;;16.90;88.80;;;;;;6285684;22;20022;-86
2023/05/10 14:14:03;;;;;;;7.70;6.07;;;16.80;89.40;;;;;;6286004;22;20083;-88
2023/05/10 14:16:35;;;;;;;10.15;6.80;;;16.70;89.70;;;;;;6294275;22;20019;-85
2023/05/10 14:19:03;;;;;;;8.50;6.00;;;16.70;89.90;;;;;;6333115;22;20019;-85
2023/05/10 14:21:31;;;;;;;7.65;5.82;;;16.60;90.00;;;;;;6311607;22;20040;-84
2023/05/10 14:23:58;;;;;;;8.43;6.32;;;16.60;90.00;;;;;;6285908;22;20069;-81
2023/05/10 14:26:26;;;;;;;9.15;6.25;;;16.70;90.00;;;;;;6310990;22;20094;-82
2023/05/10 14:28:55;;;;;;;13.15;6.30;;;16.80;90.00;;;;;;6260848;22;20018;-82
2023/05/10 14:31:25;;;;;;;8.73;6.30;;;16.80;90.00;;;;;;6286764;22;20022;-83
2023/05/10 14:33:54;;;;;;;8.23;6.28;;;16.90;90.00;;;;;;6235933;22;20519;-82
2023/05/10 14:36:22;;;;;;;8.80;5.93;;;16.90;90.00;;;;;;6285159;22;20019;-83
2023/05/10 14:38:49;;;;;;;8.35;5.03;;;16.90;90.10;;;;;;6260362;22;20029;-84
2023/05/10 14:41:19;;;;;;;7.22;5.10;;;16.90;90.20;;;;;;6260193;22;20463;-85
2023/05/10 14:43:46;;;;;;;6.35;4.45;;;16.80;90.30;;;;;;6260032;22;20019;-83
2023/05/10 14:46:13;;;;;;;8.02;4.85;;;16.80;90.40;;;;;;6259747;22;20019;-82
2023/05/10 14:48:40;;;;;;;6.53;4.03;;;16.80;90.50;;;;;;6285116;22;20019;-82
2023/05/10 14:51:07;;;;;;;6.88;4.40;;;16.80;90.50;;;;;;6234888;22;20325;-80
2023/05/10 14:53:34;;;;;;;7.88;4.32;;;16.70;90.50;;;;;;6259860;22;20023;-81
2023/05/10 14:56:02;;;;;;;4.50;2.83;;;16.50;90.60;;;;;;6284883;22;20019;-81
2023/05/10 14:58:30;;;;;;;4.65;3.13;;;16.50;90.80;;;;;;6260014;22;20022;-83
2023/05/10 15:01:00;;;;;;;4.28;2.55;;;16.50;90.80;;;;;;6286577;22;20006;-81
2023/05/10 15:03:28;;;;;;;4.13;2.20;;;16.50;90.90;;;;;;6260034;22;20011;-80